Greenwood, Virginia
Current Conditions -  °F | °C
As of 11:35 PM on Saturday 22 Nov 2014 (Local Time) from KW13 Reporting Station
Clear Clear  
Wind Chill:   Ceiling: Unl
Heat Index:   Visibility: 10mi
Dew Point: -8°   Wind: 0mph
Humidity: 57%   Direction: NA
Pressure: 30.23"   Gusts: NA
Location:  38.05°N, 78.77°W
Report Text: KW13 230435Z AUTO 00000KT 10SM CLR 00/M08 A3023 RMK AO1 T10011078
Loading
Personal Weather Stations






























Interactive Weather Map New forecast layout! Learn more

10-Day Weather Forecast

Advertisements
Track Severe Weather on mobile